Aviation Digital Data Service (ADDS)

Output produced by METARs form (0917 UTC 30 May 2017)
found at http://www.aviationweather.gov/adds/metars/
 
KTHV 300853Z AUTO 13008KT 6SM BR OVC005 15/15 A3006 RMK AO2 SLP179 T01500150 50001 TSNO
KTHV 300819Z AUTO 13005KT 3SM BR OVC005 15/15 A3007 RMK AO2 CIG 002V009 T01500150 TSNO
KTHV 300812Z AUTO 13008KT 3SM BR BKN003 OVC007 16/16 A3006 RMK AO2 CIG 002V006 T01560156 TSNO
KTHV 300804Z AUTO 14006KT 2SM BR OVC004 16/16 A3006 RMK AO2 T01560156 TSNO
KTHV 300753Z AUTO 14006KT 2 1/2SM BR BKN004 OVC007 16/16 A3006 RMK AO2 SLP179 T01560156 TSNO
KTHV 300750Z AUTO 14007KT 2SM BR BKN004 OVC007 16/16 A3006 RMK AO2 CIG 002V005 TSNO
KTHV 300732Z AUTO 13004KT 2 1/2SM BR OVC004 16/16 A3007 RMK AO2 T01610161 TSNO
KTHV 300653Z AUTO 12004KT 3SM BR OVC004 16/16 A3006 RMK AO2 SLP177 T01610161 TSNO
KTHV 300642Z AUTO 13005KT 2 1/2SM BR OVC004 16/16 A3005 RMK AO2 CIG 003V006 T01610161 TSNO
KTHV 300624Z AUTO 13006KT 3SM BR OVC004 16/16 A3006 RMK AO2 T01610161 TSNO
KTHV 300609Z AUTO 13008KT 3SM BR OVC005 16/16 A3005 RMK AO2 T01610161 TSNO
KTHV 300553Z AUTO 12008KT 2 1/2SM BR OVC005 17/17 A3005 RMK AO2 SLP177 T01670167 10206 20167 51009 TSNO
KTHV 300546Z AUTO 13006KT 2 1/2SM BR OVC005 17/17 A3005 RMK AO2 T01670167 TSNO
KTHV 300518Z AUTO 13008KT 3SM BR OVC004 17/17 A3005 RMK AO2 T01670167 TSNO
KTHV 300506Z AUTO 12007KT 2 1/2SM BR OVC004 17/17 A3005 RMK AO2 T01670167 TSNO
KTHV 300453Z AUTO 12008KT 6SM BR OVC005 17/17 A3005 RMK AO2 CIG 004V009 SLP174 T01720172 402440156 TSNO
KTHV 300446Z AUTO 12006KT 9SM OVC005 17/17 A3004 RMK AO2 T01720172 TSNO
KTHV 300434Z AUTO 13007KT 8SM OVC007 17/17 A3004 RMK AO2 CIG 005V010 T01720172 TSNO
KTHV 300353Z AUTO 14007KT 10SM OVC008 18/17 A3004 RMK AO2 SLP173 T01830172 TSNO
KTHV 300253Z AUTO 12006KT 10SM OVC009 18/18 A3002 RMK AO2 SLP167 T01830178 53016 TSNO
KTHV 300227Z AUTO 12006KT 10SM OVC009 18/18 A3002 RMK AO2 T01830178 TSNO
KTHV 300153Z AUTO 13009KT 10SM BKN010 19/18 A3000 RMK AO2 SLP157 T01890178 TSNO
KTHV 300123Z AUTO 12006KT 10SM BKN011 19/18 A2999 RMK AO2 T01890178 TSNO
KTHV 300053Z AUTO 13007KT 10SM SCT012 19/18 A2998 RMK AO2 SLP153 T01890183 TSNO
KTHV 292353Z AUTO 11007KT 10SM FEW015 21/19 A2998 RMK AO2 SLP151 60000 T02060189 10244 20206 53012 TSNO
KTHV 292253Z AUTO 13009KT 10SM CLR 22/19 A2996 RMK AO2 SLP146 T02220194 TSNO
KTHV 292153Z AUTO 11009KT 10SM CLR 22/19 A2996 RMK AO2 RAB2058E09 SLP144 P0000 T02220189 TSNO
KTHV 292053Z AUTO 08005KT 10SM FEW050 SCT065 BKN080 24/19 A2994 RMK AO2 SLP138 T02390189 53009 TSNO
KTHV 291953Z AUTO 12009KT 10SM FEW023 24/19 A2993 RMK AO2 SLP133 T02390189 TSNO
KTHV 291932Z AUTO VRB04KT 10SM SCT023 BKN033 23/19 A2993 RMK AO2 T02330189 TSNO
KTHV 291919Z AUTO 12007KT 10SM BKN022 23/19 A2993 RMK AO2 T02280189 TSNO
KTHV 291853Z AUTO 13006KT 10SM FEW028 23/19 A2992 RMK AO2 SLP133 T02330189 TSNO
KTHV 291753Z AUTO 22003KT 10SM FEW020 22/18 A2991 RMK AO2 SLP130 T02220178 10228 20161 50010 TSNO
KTHV 291711Z AUTO VRB03KT 7SM FEW018 SCT026 22/18 A2992 RMK AO2 T02170178 TSNO
KTHV 291653Z AUTO 09006KT 6SM BR BKN016 OVC025 20/18 A2992 RMK AO2 SLP131 T02000178 TSNO
KTHV 291629Z AUTO 08007KT 6SM BR SCT009 OVC016 20/18 A2992 RMK AO2 T02000178 TSNO
KTHV 291620Z AUTO 05006KT 9SM BKN009 OVC014 19/18 A2992 RMK AO2 CIG 007V011 T01940178 TSNO
KTHV 291553Z AUTO 00000KT 7SM BKN007 OVC015 19/18 A2991 RMK AO2 SLP128 T01890178 TSNO
KTHV 291511Z AUTO 07004KT 4SM BR OVC006 18/17 A2989 RMK AO2 T01780172 TSNO
KTHV 291453Z AUTO 00000KT 7SM OVC005 18/17 A2988 RMK AO2 SLP120 T01780167 50015 TSNO
KTHV 291413Z AUTO 00000KT 9SM OVC005 17/17 A2989 RMK AO2 T01720167 TSNO
KTHV 291353Z AUTO VRB03KT 7SM OVC006 17/17 A2989 RMK AO2 SLP120 T01720167 TSNO
KTHV 291346Z AUTO 00000KT 7SM OVC006 17/17 A2989 RMK AO2 T01720167 TSNO
KTHV 291327Z AUTO 00000KT 6SM BR OVC005 17/17 A2989 RMK AO2 T01670167 TSNO
KTHV 291253Z AUTO 00000KT 10SM OVC006 16/16 A2987 RMK AO2 SLP115 T01610161 TSNO
KTHV 291216Z AUTO 13005KT 10SM OVC006 16/16 A2984 RMK AO2 T01610161 TSNO
KTHV 291206Z AUTO 10005KT 10SM OVC005 16/16 A2985 RMK AO2 T01610161 TSNO
KTHV 291153Z AUTO 10007KT 10SM OVC004 16/16 A2984 RMK AO2 SLP105 60000 70007 T01610161 10161 20156 50009 TSNO
KTHV 291053Z AUTO 00000KT 6SM BR OVC004 16/16 A2984 RMK AO2 RAB0958E14 SLP106 P0000 T01560156 TSNO
KTHV 291045Z AUTO 11004KT 5SM BR OVC004 16/16 A2984 RMK AO2 RAB0958E14 P0000 T01560156 TSNO
KTHV 290953Z AUTO 00000KT 10SM OVC005 16/16 A2983 RMK AO2 CIG 004V008 SLP101 T01560156 TSNO
KTHV 290918Z AUTO 09005KT 9SM OVC006 16/16 A2982 RMK AO2 CIG 004V010 T01560156 TSNO
KTHV 290905Z AUTO 11003KT 10SM OVC008 16/16 A2981 RMK AO2 CIG 004V010 T01560156 TSNO
KTHV 290853Z AUTO 00000KT 10SM FEW005 OVC010 16/16 A2981 RMK AO2 SLP096 T01560156 58003 TSNO
KTHV 290841Z AUTO 00000KT 10SM SCT005 OVC011 16/16 A2981 RMK AO2 T01560156 TSNO
KTHV 290810Z AUTO 11003KT 7SM BKN005 OVC010 16/16 A2981 RMK AO2 CIG 003V007 T01560156 TSNO
KTHV 290753Z AUTO 10003KT 7SM BKN004 OVC009 16/16 A2981 RMK AO2 CIG 003V008 SLP095 T01560156 TSNO
KTHV 290740Z AUTO 11004KT 8SM OVC004 16/16 A2981 RMK AO2 CIG 003V008 T01560156 TSNO
KTHV 290653Z AUTO 09004KT 8SM OVC007 16/16 A2983 RMK AO2 SLP100 T01560156 TSNO
KTHV 290634Z AUTO 10005KT 7SM OVC007 16/16 A2982 RMK AO2 CIG 004V008 T01560156 TSNO
KTHV 290553Z AUTO 08004KT 6SM BR OVC005 16/16 A2982 RMK AO2 RAB18E31 SLP098 P0000 60003 T01610161 10183 20161 56013 TSNO
KTHV 290523Z AUTO 10006KT 7SM -RA OVC005 16/16 A2982 RMK AO2 RAB18 P0000 T01610161 TSNO
KTHV 290453Z AUTO 10007KT 6SM BR OVC006 16/16 A2982 RMK AO2 CIG 004V010 SLP099 T01610161 402220128 TSNO
KTHV 290428Z AUTO 11008KT 4SM BR OVC007 17/17 A2983 RMK AO2 CIG 004V010 T01670167 TSNO
KTHV 290353Z AUTO 10007KT 3SM BR OVC010 17/17 A2984 RMK AO2 RAE50 SLP104 P0003 T01670167 TSNO
KTHV 290344Z AUTO 08005KT 3SM -RA BR OVC010 17/17 A2984 RMK AO2 P0003 T01670167 TSNO
KTHV 290326Z AUTO 08005KT 2SM -RA BR OVC011 17/17 A2985 RMK AO2 P0002 T01670167 TSNO
KTHV 290311Z AUTO 09004KT 2 1/2SM -RA BR OVC009 17/17 A2985 RMK AO2 P0001 T01670167 TSNO
KTHV 290253Z AUTO 10003KT 4SM -RA BR OVC010 17/17 A2986 RMK AO2 RAB51 CIG 008V014 SLP111 P0000 60000 T01720172 55001 TSNO
KTHV 290210Z AUTO 09005KT 7SM BKN013 OVC019 18/17 A2986 RMK AO2 T01780167 TSNO
KTHV 290153Z AUTO 11005KT 10SM OVC017 18/17 A2986 RMK AO2 SLP110 T01780172 TSNO
KTHV 290053Z AUTO 10003KT 10SM BKN021 OVC032 18/17 A2986 RMK AO2 SLP110 T01780172 TSNO
KTHV 290018Z AUTO 10004KT 10SM FEW020 BKN027 OVC042 18/18 A2986 RMK AO2 T01780178 TSNO
KTHV 282353Z AUTO 00000KT 10SM OVC040 18/18 A2986 RMK AO2 RAE07 SLP113 P0000 60004 T01830178 10222 20183 53004 TSNO
KTHV 282323Z AUTO 08005KT 10SM SCT022 OVC039 18/18 A2985 RMK AO2 RAE07 P0000 T01830178 TSNO
KTHV 282253Z AUTO 00000KT 10SM -RA OVC020 18/17 A2986 RMK AO2 SLP111 P0003 T01830172 TSNO
KTHV 282153Z AUTO 13006KT 6SM -RA BR OVC027 19/17 A2985 RMK AO2 RAB2059 SLP110 P0001 T01890172 TSNO
KTHV 282129Z AUTO 11005KT 10SM -RA OVC028 19/18 A2985 RMK AO2 RAB2059 P0000 T01890178 TSNO